sensor_id;sensor_type;location;lat;lon;timestamp;P1;durP1;ratioP1;P2;durP2;ratioP2
21876;SDS011;11103;43.788;23.710;2023-04-25T00:01:03;17.00;;;13.10;;
21876;SDS011;11103;43.788;23.710;2023-04-25T00:03:30;15.77;;;13.07;;
21876;SDS011;11103;43.788;23.710;2023-04-25T00:05:57;18.77;;;13.10;;
21876;SDS011;11103;43.788;23.710;2023-04-25T00:08:26;16.10;;;13.07;;
21876;SDS011;11103;43.788;23.710;2023-04-25T00:10:52;19.53;;;13.30;;
21876;SDS011;11103;43.788;23.710;2023-04-25T00:13:17;21.33;;;13.73;;
21876;SDS011;11103;43.788;23.710;2023-04-25T00:15:43;17.27;;;13.43;;
21876;SDS011;11103;43.788;23.710;2023-04-25T00:18:09;19.03;;;13.93;;
21876;SDS011;11103;43.788;23.710;2023-04-25T00:20:36;16.57;;;13.43;;
21876;SDS011;11103;43.788;23.710;2023-04-25T00:23:01;17.23;;;13.30;;
21876;SDS011;11103;43.788;23.710;2023-04-25T00:25:27;15.80;;;13.03;;
21876;SDS011;11103;43.788;23.710;2023-04-25T00:27:52;17.13;;;13.63;;
21876;SDS011;11103;43.788;23.710;2023-04-25T00:30:17;16.10;;;14.23;;
21876;SDS011;11103;43.788;23.710;2023-04-25T00:32:43;16.83;;;13.77;;
21876;SDS011;11103;43.788;23.710;2023-04-25T00:35:09;17.63;;;14.03;;
21876;SDS011;11103;43.788;23.710;2023-04-25T00:37:34;18.23;;;13.63;;
21876;SDS011;11103;43.788;23.710;2023-04-25T00:40:00;17.63;;;13.50;;
21876;SDS011;11103;43.788;23.710;2023-04-25T00:42:26;15.60;;;13.60;;
21876;SDS011;11103;43.788;23.710;2023-04-25T00:44:52;16.20;;;13.80;;
21876;SDS011;11103;43.788;23.710;2023-04-25T00:47:18;15.53;;;13.87;;
21876;SDS011;11103;43.788;23.710;2023-04-25T00:49:43;16.23;;;13.03;;
21876;SDS011;11103;43.788;23.710;2023-04-25T00:52:09;17.07;;;13.23;;
21876;SDS011;11103;43.788;23.710;2023-04-25T00:54:36;16.87;;;12.47;;
21876;SDS011;11103;43.788;23.710;2023-04-25T00:57:01;16.73;;;13.37;;
21876;SDS011;11103;43.788;23.710;2023-04-25T00:59:28;14.70;;;11.80;;
21876;SDS011;11103;43.788;23.710;2023-04-25T01:01:54;19.00;;;12.33;;
21876;SDS011;11103;43.788;23.710;2023-04-25T01:04:20;15.57;;;11.50;;
21876;SDS011;11103;43.788;23.710;2023-04-25T01:06:46;13.50;;;11.30;;
21876;SDS011;11103;43.788;23.710;2023-04-25T01:09:12;15.37;;;11.43;;
21876;SDS011;11103;43.788;23.710;2023-04-25T01:11:38;15.67;;;10.83;;
21876;SDS011;11103;43.788;23.710;2023-04-25T01:14:05;16.77;;;12.27;;
21876;SDS011;11103;43.788;23.710;2023-04-25T01:16:31;16.17;;;11.70;;
21876;SDS011;11103;43.788;23.710;2023-04-25T01:18:56;14.37;;;11.23;;
21876;SDS011;11103;43.788;23.710;2023-04-25T01:21:22;13.27;;;11.10;;
21876;SDS011;11103;43.788;23.710;2023-04-25T01:23:51;13.50;;;10.83;;
21876;SDS011;11103;43.788;23.710;2023-04-25T01:26:17;16.97;;;10.93;;
21876;SDS011;11103;43.788;23.710;2023-04-25T01:28:43;17.20;;;11.00;;
21876;SDS011;11103;43.788;23.710;2023-04-25T01:31:10;19.43;;;11.37;;
21876;SDS011;11103;43.788;23.710;2023-04-25T01:33:37;15.03;;;11.53;;
21876;SDS011;11103;43.788;23.710;2023-04-25T01:36:02;15.93;;;12.67;;
21876;SDS011;11103;43.788;23.710;2023-04-25T01:38:28;20.20;;;11.90;;
21876;SDS011;11103;43.788;23.710;2023-04-25T01:40:54;14.27;;;11.57;;
21876;SDS011;11103;43.788;23.710;2023-04-25T01:43:20;17.67;;;12.33;;
21876;SDS011;11103;43.788;23.710;2023-04-25T01:45:45;16.83;;;12.00;;
21876;SDS011;11103;43.788;23.710;2023-04-25T01:48:12;17.97;;;11.83;;
21876;SDS011;11103;43.788;23.710;2023-04-25T01:50:38;16.63;;;12.03;;
21876;SDS011;11103;43.788;23.710;2023-04-25T01:53:05;20.13;;;11.30;;
21876;SDS011;11103;43.788;23.710;2023-04-25T01:55:30;17.37;;;11.73;;
21876;SDS011;11103;43.788;23.710;2023-04-25T01:57:56;14.67;;;10.13;;
21876;SDS011;11103;43.788;23.710;2023-04-25T02:00:21;13.33;;;11.67;;
21876;SDS011;11103;43.788;23.710;2023-04-25T02:02:47;17.93;;;11.90;;
21876;SDS011;11103;43.788;23.710;2023-04-25T02:05:13;33.33;;;16.87;;
21876;SDS011;11103;43.788;23.710;2023-04-25T02:07:38;26.00;;;16.37;;
21876;SDS011;11103;43.788;23.710;2023-04-25T02:10:04;22.40;;;14.30;;
21876;SDS011;11103;43.788;23.710;2023-04-25T02:12:30;18.53;;;13.13;;
21876;SDS011;11103;43.788;23.710;2023-04-25T02:14:56;18.07;;;12.60;;
21876;SDS011;11103;43.788;23.710;2023-04-25T02:17:22;19.73;;;12.07;;
21876;SDS011;11103;43.788;23.710;2023-04-25T02:19:47;14.50;;;12.37;;
21876;SDS011;11103;43.788;23.710;2023-04-25T02:22:13;19.97;;;13.03;;
21876;SDS011;11103;43.788;23.710;2023-04-25T02:24:38;16.37;;;12.60;;
21876;SDS011;11103;43.788;23.710;2023-04-25T02:27:04;16.50;;;12.07;;
21876;SDS011;11103;43.788;23.710;2023-04-25T02:29:29;14.77;;;12.07;;
21876;SDS011;11103;43.788;23.710;2023-04-25T02:31:55;16.77;;;13.53;;
21876;SDS011;11103;43.788;23.710;2023-04-25T02:34:20;16.90;;;13.57;;
21876;SDS011;11103;43.788;23.710;2023-04-25T02:36:47;23.77;;;16.77;;
21876;SDS011;11103;43.788;23.710;2023-04-25T02:39:13;23.90;;;18.77;;
21876;SDS011;11103;43.788;23.710;2023-04-25T02:41:39;24.00;;;18.63;;
21876;SDS011;11103;43.788;23.710;2023-04-25T02:44:04;24.50;;;18.40;;
21876;SDS011;11103;43.788;23.710;2023-04-25T02:46:30;24.73;;;18.67;;
21876;SDS011;11103;43.788;23.710;2023-04-25T02:48:55;24.67;;;19.37;;
21876;SDS011;11103;43.788;23.710;2023-04-25T02:51:20;27.20;;;20.17;;
21876;SDS011;11103;43.788;23.710;2023-04-25T02:53:46;27.70;;;20.07;;
21876;SDS011;11103;43.788;23.710;2023-04-25T02:56:11;31.83;;;20.97;;
21876;SDS011;11103;43.788;23.710;2023-04-25T02:58:37;33.10;;;22.23;;
21876;SDS011;11103;43.788;23.710;2023-04-25T03:01:02;31.80;;;22.00;;
21876;SDS011;11103;43.788;23.710;2023-04-25T03:03:27;29.43;;;20.80;;
21876;SDS011;11103;43.788;23.710;2023-04-25T03:05:53;28.43;;;21.70;;
21876;SDS011;11103;43.788;23.710;2023-04-25T03:08:18;30.40;;;21.43;;
21876;SDS011;11103;43.788;23.710;2023-04-25T03:10:44;26.03;;;21.10;;
21876;SDS011;11103;43.788;23.710;2023-04-25T03:13:09;25.80;;;20.27;;
21876;SDS011;11103;43.788;23.710;2023-04-25T03:15:35;30.70;;;21.63;;
21876;SDS011;11103;43.788;23.710;2023-04-25T03:18:01;28.07;;;21.30;;
21876;SDS011;11103;43.788;23.710;2023-04-25T03:20:27;29.97;;;22.13;;
21876;SDS011;11103;43.788;23.710;2023-04-25T03:22:52;28.03;;;22.43;;
21876;SDS011;11103;43.788;23.710;2023-04-25T03:25:18;28.27;;;20.77;;
21876;SDS011;11103;43.788;23.710;2023-04-25T03:27:44;30.00;;;22.23;;
21876;SDS011;11103;43.788;23.710;2023-04-25T03:30:09;31.57;;;23.27;;
21876;SDS011;11103;43.788;23.710;2023-04-25T03:32:35;34.57;;;23.43;;
21876;SDS011;11103;43.788;23.710;2023-04-25T03:35:00;32.87;;;24.47;;
21876;SDS011;11103;43.788;23.710;2023-04-25T03:37:26;34.57;;;24.23;;
21876;SDS011;11103;43.788;23.710;2023-04-25T03:39:51;37.77;;;27.47;;
21876;SDS011;11103;43.788;23.710;2023-04-25T03:42:16;35.13;;;25.53;;
21876;SDS011;11103;43.788;23.710;2023-04-25T03:44:42;35.03;;;25.40;;
21876;SDS011;11103;43.788;23.710;2023-04-25T03:47:08;40.37;;;26.37;;
21876;SDS011;11103;43.788;23.710;2023-04-25T03:49:34;36.33;;;24.40;;
21876;SDS011;11103;43.788;23.710;2023-04-25T03:51:59;33.90;;;22.67;;
21876;SDS011;11103;43.788;23.710;2023-04-25T03:54:25;37.53;;;22.97;;
21876;SDS011;11103;43.788;23.710;2023-04-25T03:56:51;29.60;;;22.63;;
21876;SDS011;11103;43.788;23.710;2023-04-25T03:59:16;33.33;;;23.23;;
21876;SDS011;11103;43.788;23.710;2023-04-25T04:01:41;38.33;;;24.33;;
21876;SDS011;11103;43.788;23.710;2023-04-25T04:04:07;34.37;;;23.87;;
21876;SDS011;11103;43.788;23.710;2023-04-25T04:06:32;36.60;;;24.83;;
21876;SDS011;11103;43.788;23.710;2023-04-25T04:08:59;33.43;;;24.57;;
21876;SDS011;11103;43.788;23.710;2023-04-25T04:11:24;34.03;;;24.13;;
21876;SDS011;11103;43.788;23.710;2023-04-25T04:13:50;35.60;;;23.60;;
21876;SDS011;11103;43.788;23.710;2023-04-25T04:16:15;31.63;;;23.63;;
21876;SDS011;11103;43.788;23.710;2023-04-25T04:18:41;31.77;;;22.80;;
21876;SDS011;11103;43.788;23.710;2023-04-25T04:21:06;30.53;;;23.00;;
21876;SDS011;11103;43.788;23.710;2023-04-25T04:23:32;33.47;;;22.23;;
21876;SDS011;11103;43.788;23.710;2023-04-25T04:25:58;32.03;;;21.90;;
21876;SDS011;11103;43.788;23.710;2023-04-25T04:28:24;28.57;;;21.73;;
21876;SDS011;11103;43.788;23.710;2023-04-25T04:30:50;28.10;;;21.73;;
21876;SDS011;11103;43.788;23.710;2023-04-25T04:33:17;32.47;;;21.70;;
21876;SDS011;11103;43.788;23.710;2023-04-25T04:35:44;28.80;;;21.27;;
21876;SDS011;11103;43.788;23.710;2023-04-25T04:38:11;27.70;;;21.07;;
21876;SDS011;11103;43.788;23.710;2023-04-25T04:40:40;28.63;;;20.73;;
21876;SDS011;11103;43.788;23.710;2023-04-25T04:43:06;26.23;;;20.23;;
21876;SDS011;11103;43.788;23.710;2023-04-25T04:45:33;28.00;;;20.23;;
21876;SDS011;11103;43.788;23.710;2023-04-25T04:47:59;29.13;;;21.10;;
21876;SDS011;11103;43.788;23.710;2023-04-25T04:50:24;28.27;;;20.20;;
21876;SDS011;11103;43.788;23.710;2023-04-25T04:52:51;28.80;;;22.63;;
21876;SDS011;11103;43.788;23.710;2023-04-25T04:55:17;27.03;;;20.73;;
21876;SDS011;11103;43.788;23.710;2023-04-25T04:57:42;25.50;;;20.03;;
21876;SDS011;11103;43.788;23.710;2023-04-25T05:00:07;24.73;;;18.47;;
21876;SDS011;11103;43.788;23.710;2023-04-25T05:02:36;24.50;;;19.30;;
21876;SDS011;11103;43.788;23.710;2023-04-25T05:05:03;24.90;;;19.60;;
21876;SDS011;11103;43.788;23.710;2023-04-25T05:07:29;27.33;;;18.93;;
21876;SDS011;11103;43.788;23.710;2023-04-25T05:09:55;27.93;;;20.17;;
21876;SDS011;11103;43.788;23.710;2023-04-25T05:12:20;26.67;;;19.67;;
21876;SDS011;11103;43.788;23.710;2023-04-25T05:14:46;23.50;;;18.27;;
21876;SDS011;11103;43.788;23.710;2023-04-25T05:17:11;30.03;;;18.90;;
21876;SDS011;11103;43.788;23.710;2023-04-25T05:19:36;22.90;;;17.67;;
21876;SDS011;11103;43.788;23.710;2023-04-25T05:22:02;22.37;;;16.73;;
21876;SDS011;11103;43.788;23.710;2023-04-25T05:24:27;22.27;;;17.57;;
21876;SDS011;11103;43.788;23.710;2023-04-25T05:26:53;20.10;;;16.33;;
21876;SDS011;11103;43.788;23.710;2023-04-25T05:29:18;20.70;;;16.37;;
21876;SDS011;11103;43.788;23.710;2023-04-25T05:31:44;20.07;;;16.20;;
21876;SDS011;11103;43.788;23.710;2023-04-25T05:34:09;21.27;;;15.67;;
21876;SDS011;11103;43.788;23.710;2023-04-25T05:36:35;17.23;;;14.33;;
21876;SDS011;11103;43.788;23.710;2023-04-25T05:39:00;16.17;;;14.27;;
21876;SDS011;11103;43.788;23.710;2023-04-25T05:41:26;18.40;;;15.83;;
21876;SDS011;11103;43.788;23.710;2023-04-25T05:43:51;19.50;;;16.00;;
21876;SDS011;11103;43.788;23.710;2023-04-25T05:46:16;22.70;;;16.10;;
21876;SDS011;11103;43.788;23.710;2023-04-25T05:48:42;23.47;;;16.73;;
21876;SDS011;11103;43.788;23.710;2023-04-25T05:51:08;21.53;;;16.20;;
21876;SDS011;11103;43.788;23.710;2023-04-25T05:53:34;21.50;;;17.37;;
21876;SDS011;11103;43.788;23.710;2023-04-25T05:55:59;18.43;;;16.43;;
21876;SDS011;11103;43.788;23.710;2023-04-25T05:58:25;19.67;;;15.37;;
21876;SDS011;11103;43.788;23.710;2023-04-25T06:00:50;21.03;;;16.33;;
21876;SDS011;11103;43.788;23.710;2023-04-25T06:03:16;19.33;;;15.97;;
21876;SDS011;11103;43.788;23.710;2023-04-25T06:05:42;17.80;;;14.40;;
21876;SDS011;11103;43.788;23.710;2023-04-25T06:08:08;17.67;;;14.67;;
21876;SDS011;11103;43.788;23.710;2023-04-25T06:10:33;17.83;;;14.93;;
21876;SDS011;11103;43.788;23.710;2023-04-25T06:12:59;18.83;;;14.33;;
21876;SDS011;11103;43.788;23.710;2023-04-25T06:15:24;15.47;;;13.83;;
21876;SDS011;11103;43.788;23.710;2023-04-25T06:17:50;17.07;;;14.07;;
21876;SDS011;11103;43.788;23.710;2023-04-25T06:20:15;19.30;;;14.17;;
21876;SDS011;11103;43.788;23.710;2023-04-25T06:22:41;20.93;;;15.50;;
21876;SDS011;11103;43.788;23.710;2023-04-25T06:25:06;18.27;;;15.30;;
21876;SDS011;11103;43.788;23.710;2023-04-25T06:27:32;18.87;;;15.37;;
21876;SDS011;11103;43.788;23.710;2023-04-25T06:29:58;18.13;;;14.20;;
21876;SDS011;11103;43.788;23.710;2023-04-25T06:32:24;16.23;;;14.10;;
21876;SDS011;11103;43.788;23.710;2023-04-25T06:34:50;15.73;;;13.70;;
21876;SDS011;11103;43.788;23.710;2023-04-25T06:37:15;16.47;;;14.27;;
21876;SDS011;11103;43.788;23.710;2023-04-25T06:39:41;18.40;;;12.53;;
21876;SDS011;11103;43.788;23.710;2023-04-25T06:42:06;16.27;;;12.73;;
21876;SDS011;11103;43.788;23.710;2023-04-25T06:44:31;17.77;;;12.03;;
21876;SDS011;11103;43.788;23.710;2023-04-25T06:46:57;11.80;;;10.60;;
21876;SDS011;11103;43.788;23.710;2023-04-25T06:49:22;12.20;;;10.40;;
21876;SDS011;11103;43.788;23.710;2023-04-25T06:51:48;13.80;;;10.53;;
21876;SDS011;11103;43.788;23.710;2023-04-25T06:54:13;12.37;;;10.57;;
21876;SDS011;11103;43.788;23.710;2023-04-25T06:56:38;11.13;;;9.73;;
21876;SDS011;11103;43.788;23.710;2023-04-25T06:59:04;12.13;;;8.43;;
21876;SDS011;11103;43.788;23.710;2023-04-25T07:01:29;11.70;;;9.67;;
21876;SDS011;11103;43.788;23.710;2023-04-25T07:03:55;12.20;;;8.23;;
21876;SDS011;11103;43.788;23.710;2023-04-25T07:06:22;10.27;;;8.80;;
21876;SDS011;11103;43.788;23.710;2023-04-25T07:08:47;11.13;;;8.33;;
21876;SDS011;11103;43.788;23.710;2023-04-25T07:11:12;7.67;;;5.93;;
21876;SDS011;11103;43.788;23.710;2023-04-25T07:13:38;6.30;;;5.50;;
21876;SDS011;11103;43.788;23.710;2023-04-25T07:16:03;6.23;;;5.30;;
21876;SDS011;11103;43.788;23.710;2023-04-25T07:18:29;6.23;;;4.87;;
21876;SDS011;11103;43.788;23.710;2023-04-25T07:20:55;5.93;;;4.60;;
21876;SDS011;11103;43.788;23.710;2023-04-25T07:23:20;3.87;;;3.43;;
21876;SDS011;11103;43.788;23.710;2023-04-25T07:25:46;3.10;;;2.83;;
21876;SDS011;11103;43.788;23.710;2023-04-25T07:28:11;6.83;;;3.27;;
21876;SDS011;11103;43.788;23.710;2023-04-25T07:30:37;4.50;;;2.73;;
21876;SDS011;11103;43.788;23.710;2023-04-25T07:33:02;3.00;;;2.70;;
21876;SDS011;11103;43.788;23.710;2023-04-25T07:35:28;3.20;;;2.90;;
21876;SDS011;11103;43.788;23.710;2023-04-25T07:37:53;5.10;;;3.27;;
21876;SDS011;11103;43.788;23.710;2023-04-25T07:40:19;6.33;;;2.87;;
21876;SDS011;11103;43.788;23.710;2023-04-25T07:42:44;3.40;;;2.70;;
21876;SDS011;11103;43.788;23.710;2023-04-25T07:45:10;4.87;;;2.60;;
21876;SDS011;11103;43.788;23.710;2023-04-25T07:47:35;2.50;;;2.30;;
21876;SDS011;11103;43.788;23.710;2023-04-25T07:50:01;2.40;;;2.20;;
21876;SDS011;11103;43.788;23.710;2023-04-25T07:52:28;3.63;;;1.90;;
21876;SDS011;11103;43.788;23.710;2023-04-25T07:54:53;3.63;;;2.10;;
21876;SDS011;11103;43.788;23.710;2023-04-25T07:57:19;4.47;;;2.13;;
21876;SDS011;11103;43.788;23.710;2023-04-25T07:59:45;3.17;;;2.27;;
21876;SDS011;11103;43.788;23.710;2023-04-25T08:02:10;1.80;;;1.70;;
21876;SDS011;11103;43.788;23.710;2023-04-25T08:04:36;4.27;;;2.00;;
21876;SDS011;11103;43.788;23.710;2023-04-25T08:07:01;2.53;;;2.33;;
21876;SDS011;11103;43.788;23.710;2023-04-25T08:09:26;3.87;;;2.30;;
21876;SDS011;11103;43.788;23.710;2023-04-25T08:11:52;2.97;;;1.93;;
21876;SDS011;11103;43.788;23.710;2023-04-25T08:14:18;4.53;;;1.90;;
21876;SDS011;11103;43.788;23.710;2023-04-25T08:16:43;2.03;;;1.93;;
21876;SDS011;11103;43.788;23.710;2023-04-25T08:19:09;2.30;;;1.90;;
21876;SDS011;11103;43.788;23.710;2023-04-25T08:21:36;2.30;;;2.10;;
21876;SDS011;11103;43.788;23.710;2023-04-25T08:24:01;3.53;;;2.40;;
21876;SDS011;11103;43.788;23.710;2023-04-25T08:26:27;2.30;;;2.10;;
21876;SDS011;11103;43.788;23.710;2023-04-25T08:28:53;5.67;;;2.10;;
21876;SDS011;11103;43.788;23.710;2023-04-25T08:31:19;1.87;;;1.77;;
21876;SDS011;11103;43.788;23.710;2023-04-25T08:33:45;3.53;;;2.33;;
21876;SDS011;11103;43.788;23.710;2023-04-25T08:36:11;3.23;;;2.17;;
21876;SDS011;11103;43.788;23.710;2023-04-25T08:38:36;3.10;;;2.07;;
21876;SDS011;11103;43.788;23.710;2023-04-25T08:41:01;3.00;;;2.27;;
21876;SDS011;11103;43.788;23.710;2023-04-25T08:43:27;3.03;;;2.40;;
21876;SDS011;11103;43.788;23.710;2023-04-25T08:45:54;10.10;;;2.77;;
21876;SDS011;11103;43.788;23.710;2023-04-25T08:48:25;4.80;;;1.80;;
21876;SDS011;11103;43.788;23.710;2023-04-25T08:50:53;3.00;;;1.80;;
21876;SDS011;11103;43.788;23.710;2023-04-25T08:53:27;5.63;;;1.80;;
21876;SDS011;11103;43.788;23.710;2023-04-25T08:55:58;7.43;;;1.80;;
21876;SDS011;11103;43.788;23.710;2023-04-25T08:58:24;3.17;;;1.70;;
21876;SDS011;11103;43.788;23.710;2023-04-25T09:00:51;1.83;;;1.73;;
21876;SDS011;11103;43.788;23.710;2023-04-25T09:03:17;7.73;;;2.10;;
21876;SDS011;11103;43.788;23.710;2023-04-25T09:05:43;3.30;;;1.80;;
21876;SDS011;11103;43.788;23.710;2023-04-25T09:08:08;2.10;;;1.90;;
21876;SDS011;11103;43.788;23.710;2023-04-25T09:10:34;5.17;;;2.43;;
21876;SDS011;11103;43.788;23.710;2023-04-25T09:13:04;1.73;;;1.63;;
21876;SDS011;11103;43.788;23.710;2023-04-25T09:15:30;1.60;;;1.50;;
21876;SDS011;11103;43.788;23.710;2023-04-25T09:17:56;2.83;;;1.70;;
21876;SDS011;11103;43.788;23.710;2023-04-25T09:20:23;2.33;;;1.70;;
21876;SDS011;11103;43.788;23.710;2023-04-25T09:22:49;3.33;;;1.70;;
21876;SDS011;11103;43.788;23.710;2023-04-25T09:25:27;2.90;;;1.87;;
21876;SDS011;11103;43.788;23.710;2023-04-25T09:28:00;2.50;;;1.63;;
21876;SDS011;11103;43.788;23.710;2023-04-25T09:30:54;3.93;;;1.73;;
21876;SDS011;11103;43.788;23.710;2023-04-25T09:33:20;1.70;;;1.60;;
21876;SDS011;11103;43.788;23.710;2023-04-25T09:35:45;4.33;;;1.63;;
21876;SDS011;11103;43.788;23.710;2023-04-25T09:38:12;1.90;;;1.53;;
21876;SDS011;11103;43.788;23.710;2023-04-25T09:40:42;1.80;;;1.40;;
21876;SDS011;11103;43.788;23.710;2023-04-25T09:43:09;1.70;;;1.60;;
21876;SDS011;11103;43.788;23.710;2023-04-25T09:45:41;3.43;;;1.80;;
21876;SDS011;11103;43.788;23.710;2023-04-25T09:48:10;3.87;;;1.80;;
21876;SDS011;11103;43.788;23.710;2023-04-25T09:50:37;2.20;;;1.97;;
21876;SDS011;11103;43.788;23.710;2023-04-25T09:53:05;4.10;;;2.00;;
21876;SDS011;11103;43.788;23.710;2023-04-25T09:55:32;1.70;;;1.60;;
21876;SDS011;11103;43.788;23.710;2023-04-25T09:58:00;3.87;;;1.70;;
21876;SDS011;11103;43.788;23.710;2023-04-25T10:00:30;1.63;;;1.50;;
21876;SDS011;11103;43.788;23.710;2023-04-25T10:02:57;1.77;;;1.57;;
21876;SDS011;11103;43.788;23.710;2023-04-25T10:05:28;1.67;;;1.57;;
21876;SDS011;11103;43.788;23.710;2023-04-25T10:07:57;3.70;;;1.80;;
21876;SDS011;11103;43.788;23.710;2023-04-25T10:10:25;2.37;;;1.60;;
21876;SDS011;11103;43.788;23.710;2023-04-25T10:12:53;2.40;;;1.80;;
21876;SDS011;11103;43.788;23.710;2023-04-25T10:15:19;2.57;;;1.60;;
21876;SDS011;11103;43.788;23.710;2023-04-25T10:17:46;4.73;;;1.63;;
21876;SDS011;11103;43.788;23.710;2023-04-25T10:20:13;1.93;;;1.53;;
21876;SDS011;11103;43.788;23.710;2023-04-25T10:22:41;3.00;;;1.70;;
21876;SDS011;11103;43.788;23.710;2023-04-25T10:25:07;2.00;;;1.70;;
21876;SDS011;11103;43.788;23.710;2023-04-25T10:27:34;3.97;;;1.90;;
21876;SDS011;11103;43.788;23.710;2023-04-25T10:30:10;2.70;;;1.60;;
21876;SDS011;11103;43.788;23.710;2023-04-25T10:32:41;1.57;;;1.40;;
21876;SDS011;11103;43.788;23.710;2023-04-25T10:38:06;4.87;;;1.97;;
21876;SDS011;11103;43.788;23.710;2023-04-25T10:40:35;5.00;;;1.60;;
21876;SDS011;11103;43.788;23.710;2023-04-25T10:43:33;1.30;;;1.20;;
21876;SDS011;11103;43.788;23.710;2023-04-25T10:46:24;2.03;;;1.80;;
21876;SDS011;11103;43.788;23.710;2023-04-25T10:48:52;2.07;;;1.80;;
21876;SDS011;11103;43.788;23.710;2023-04-25T10:56:20;1.90;;;1.70;;
21876;SDS011;11103;43.788;23.710;2023-04-25T10:59:05;2.20;;;2.10;;
21876;SDS011;11103;43.788;23.710;2023-04-25T11:01:44;2.63;;;1.87;;
21876;SDS011;11103;43.788;23.710;2023-04-25T11:09:34;4.83;;;1.93;;
21876;SDS011;11103;43.788;23.710;2023-04-25T11:12:01;3.07;;;2.00;;
21876;SDS011;11103;43.788;23.710;2023-04-25T11:14:26;1.87;;;1.77;;
21876;SDS011;11103;43.788;23.710;2023-04-25T11:16:53;2.60;;;1.83;;
21876;SDS011;11103;43.788;23.710;2023-04-25T11:19:20;1.90;;;1.80;;
21876;SDS011;11103;43.788;23.710;2023-04-25T11:21:46;4.00;;;1.90;;
21876;SDS011;11103;43.788;23.710;2023-04-25T11:24:11;8.73;;;2.20;;
21876;SDS011;11103;43.788;23.710;2023-04-25T11:26:37;3.13;;;1.80;;
21876;SDS011;11103;43.788;23.710;2023-04-25T11:29:02;1.70;;;1.57;;
21876;SDS011;11103;43.788;23.710;2023-04-25T11:31:28;3.90;;;1.70;;
21876;SDS011;11103;43.788;23.710;2023-04-25T11:33:56;2.97;;;1.70;;
21876;SDS011;11103;43.788;23.710;2023-04-25T11:36:23;5.20;;;1.90;;
21876;SDS011;11103;43.788;23.710;2023-04-25T11:38:50;1.90;;;1.70;;
21876;SDS011;11103;43.788;23.710;2023-04-25T11:41:17;4.43;;;1.97;;
21876;SDS011;11103;43.788;23.710;2023-04-25T11:43:43;2.87;;;1.70;;
21876;SDS011;11103;43.788;23.710;2023-04-25T11:46:08;3.23;;;1.83;;
21876;SDS011;11103;43.788;23.710;2023-04-25T11:48:41;6.40;;;1.70;;
21876;SDS011;11103;43.788;23.710;2023-04-25T11:51:07;2.93;;;1.43;;
21876;SDS011;11103;43.788;23.710;2023-04-25T11:53:33;3.13;;;1.50;;
21876;SDS011;11103;43.788;23.710;2023-04-25T11:55:59;2.43;;;1.67;;
21876;SDS011;11103;43.788;23.710;2023-04-25T11:58:25;1.30;;;1.20;;
21876;SDS011;11103;43.788;23.710;2023-04-25T12:00:51;3.40;;;1.30;;
21876;SDS011;11103;43.788;23.710;2023-04-25T12:03:17;1.40;;;1.30;;
21876;SDS011;11103;43.788;23.710;2023-04-25T12:05:43;4.63;;;1.43;;
21876;SDS011;11103;43.788;23.710;2023-04-25T12:08:10;1.30;;;1.30;;
21876;SDS011;11103;43.788;23.710;2023-04-25T12:10:40;2.50;;;1.50;;
21876;SDS011;11103;43.788;23.710;2023-04-25T12:13:17;1.40;;;1.30;;
21876;SDS011;11103;43.788;23.710;2023-04-25T12:15:44;3.40;;;1.43;;
21876;SDS011;11103;43.788;23.710;2023-04-25T12:18:10;4.10;;;1.40;;
21876;SDS011;11103;43.788;23.710;2023-04-25T12:20:35;4.83;;;1.30;;
21876;SDS011;11103;43.788;23.710;2023-04-25T12:23:01;2.40;;;1.40;;
21876;SDS011;11103;43.788;23.710;2023-04-25T12:25:38;3.20;;;1.20;;
21876;SDS011;11103;43.788;23.710;2023-04-25T12:28:13;3.07;;;1.17;;
21876;SDS011;11103;43.788;23.710;2023-04-25T12:30:54;1.27;;;1.20;;
21876;SDS011;11103;43.788;23.710;2023-04-25T12:33:22;1.50;;;1.40;;
21876;SDS011;11103;43.788;23.710;2023-04-25T12:35:48;2.07;;;1.20;;
21876;SDS011;11103;43.788;23.710;2023-04-25T12:38:29;1.40;;;1.30;;
21876;SDS011;11103;43.788;23.710;2023-04-25T12:41:00;1.30;;;1.20;;
21876;SDS011;11103;43.788;23.710;2023-04-25T12:43:26;1.40;;;1.30;;
21876;SDS011;11103;43.788;23.710;2023-04-25T12:45:52;6.83;;;1.50;;
21876;SDS011;11103;43.788;23.710;2023-04-25T12:48:18;2.77;;;1.20;;
21876;SDS011;11103;43.788;23.710;2023-04-25T12:50:45;1.13;;;1.13;;
21876;SDS011;11103;43.788;23.710;2023-04-25T12:53:14;1.40;;;1.30;;
21876;SDS011;11103;43.788;23.710;2023-04-25T12:55:42;1.20;;;1.20;;
21876;SDS011;11103;43.788;23.710;2023-04-25T12:58:08;1.40;;;1.20;;
21876;SDS011;11103;43.788;23.710;2023-04-25T13:00:33;1.37;;;1.33;;
21876;SDS011;11103;43.788;23.710;2023-04-25T13:02:59;2.63;;;1.60;;
21876;SDS011;11103;43.788;23.710;2023-04-25T13:05:25;1.77;;;1.30;;
21876;SDS011;11103;43.788;23.710;2023-04-25T13:07:50;1.30;;;1.30;;
21876;SDS011;11103;43.788;23.710;2023-04-25T13:10:16;5.57;;;1.53;;
21876;SDS011;11103;43.788;23.710;2023-04-25T13:12:43;1.60;;;1.43;;
21876;SDS011;11103;43.788;23.710;2023-04-25T13:15:08;3.23;;;1.40;;
21876;SDS011;11103;43.788;23.710;2023-04-25T13:17:36;4.00;;;1.57;;
21876;SDS011;11103;43.788;23.710;2023-04-25T13:20:02;2.73;;;1.40;;
21876;SDS011;11103;43.788;23.710;2023-04-25T13:22:31;3.47;;;1.40;;
21876;SDS011;11103;43.788;23.710;2023-04-25T13:24:56;4.87;;;1.50;;
21876;SDS011;11103;43.788;23.710;2023-04-25T13:27:21;1.70;;;1.60;;
21876;SDS011;11103;43.788;23.710;2023-04-25T13:29:47;1.70;;;1.60;;
21876;SDS011;11103;43.788;23.710;2023-04-25T13:32:12;1.80;;;1.50;;
21876;SDS011;11103;43.788;23.710;2023-04-25T13:34:38;3.37;;;1.50;;
21876;SDS011;11103;43.788;23.710;2023-04-25T13:37:03;3.83;;;1.60;;
21876;SDS011;11103;43.788;23.710;2023-04-25T13:39:28;1.80;;;1.70;;
21876;SDS011;11103;43.788;23.710;2023-04-25T13:41:54;3.03;;;1.90;;
21876;SDS011;11103;43.788;23.710;2023-04-25T13:44:19;1.70;;;1.60;;
21876;SDS011;11103;43.788;23.710;2023-04-25T13:46:45;4.73;;;2.00;;
21876;SDS011;11103;43.788;23.710;2023-04-25T13:49:11;2.57;;;2.07;;
21876;SDS011;11103;43.788;23.710;2023-04-25T13:51:37;3.53;;;2.20;;
21876;SDS011;11103;43.788;23.710;2023-04-25T13:54:02;2.23;;;2.03;;
21876;SDS011;11103;43.788;23.710;2023-04-25T13:56:28;2.30;;;2.10;;
21876;SDS011;11103;43.788;23.710;2023-04-25T13:58:53;3.20;;;2.27;;
21876;SDS011;11103;43.788;23.710;2023-04-25T14:01:18;2.43;;;2.23;;
21876;SDS011;11103;43.788;23.710;2023-04-25T14:03:45;3.90;;;2.93;;
21876;SDS011;11103;43.788;23.710;2023-04-25T14:06:10;3.53;;;2.70;;
21876;SDS011;11103;43.788;23.710;2023-04-25T14:08:37;3.33;;;2.67;;
21876;SDS011;11103;43.788;23.710;2023-04-25T14:11:03;6.57;;;3.27;;
21876;SDS011;11103;43.788;23.710;2023-04-25T14:13:28;7.23;;;3.53;;
21876;SDS011;11103;43.788;23.710;2023-04-25T14:15:54;6.00;;;2.80;;
21876;SDS011;11103;43.788;23.710;2023-04-25T14:18:19;3.17;;;2.50;;
21876;SDS011;11103;43.788;23.710;2023-04-25T14:20:45;3.00;;;2.63;;
21876;SDS011;11103;43.788;23.710;2023-04-25T14:23:10;2.50;;;2.30;;
21876;SDS011;11103;43.788;23.710;2023-04-25T14:25:36;11.03;;;4.07;;
21876;SDS011;11103;43.788;23.710;2023-04-25T14:28:02;4.90;;;2.90;;
21876;SDS011;11103;43.788;23.710;2023-04-25T14:30:27;7.00;;;3.20;;